Airfield :
LOGIN :

Register | Disclaimer

   EN    FR    IT 

 










Legend :    VFR   Marginal VFR   IFR   Intensive IFR   Very Intensive IFR
Visi :
Ceiling :
>= 8 km
>= 3000ft
5 to 8 km
1000 to 3000 ft
1500m to 5 km
500 to 1000 ft
800 to 1500m
200 to 500 ft
< 800m
< 200 ft
Symbols :   Thunderstorms  Fog  Heavy snow  Heavy precipitations  Wind > 20 kt
SIGMETs :     Misc.  Thunderstorms  Icing  Turbulence  Mountain Waves  Volcanic Ashes







- Airport Elevation : 20 ft


EBFN - Koksijde

CURRENT METAR :
  • 201225Z 35012KT 9999 BKN011 BKN016 13/09 Q1012 GRN GRN BECMG WHT

EXPIRED METARs :
  • 201155Z 36010KT 9999 BKN011 BKN016 12/09 Q1012 GRN GRN BECMG WHT
  • 201125Z 35012KT 9999 BKN011 BKN016 13/09 Q1012 GRN GRN BECMG WHT
  • 201055Z 34011KT 9999 BKN010 BKN016 12/09 Q1011 GRN GRN BECMG WHT
  • 201025Z 34010KT 9999 OVC010 12/09 Q1011 GRN GRN BECMG WHT
  • 201022Z 35009KT 9999 OVC010 12/09 Q1011 GRN GRN BECMG WHT
  • 200955Z 34010KT 8000 OVC008 11/09 Q1011 GRN GRN

TAF TAF EBFN
Valid from the 20 at 13:00 until the 20 at 22:00 UTC


201141Z 2013/2022 34012KT 9999 SCT013 SCT020
BECMG 2013/2015 SCT020 SCT045
No reported NOTAMs for that airfield.



MET'MAP, your aeronautical weather chart ! - Copyright ORBIFLY December 2007 - Disclaimer

ORBIFLY MET'MAP TEAM :

Programming & Development : Alexandra Zaïnal
Concept & Development : Baudouin d'Aumeries
Co-Development & Prog : Marc-Olivier Méhu
Technical & hardware support : Manuel Goepfert

Contact : metmap@orbifly.com




SOURCES & CREDITS :

   NOAA